createdAt,value
2017-11-06T00:02:00.671Z,99601.12
2017-11-06T00:04:26.969Z,99600.11
2017-11-06T00:06:54.079Z,99603.45
2017-11-06T00:09:20.421Z,99602.20
2017-11-06T00:11:46.697Z,99596.83
2017-11-06T00:14:13.010Z,99608.58
2017-11-06T00:16:40.090Z,99610.42
2017-11-06T00:19:06.443Z,99613.95
2017-11-06T00:21:33.521Z,99615.63
2017-11-06T00:23:59.858Z,99614.82
2017-11-06T00:26:26.104Z,99613.94
2017-11-06T00:28:53.235Z,99608.87
2017-11-06T00:31:19.538Z,99609.85
2017-11-06T00:33:45.832Z,99617.75
2017-11-06T00:36:12.150Z,99613.36
2017-11-06T00:38:39.199Z,99631.22
2017-11-06T00:41:06.321Z,99627.58
2017-11-06T00:43:32.637Z,99623.48
2017-11-06T00:45:58.955Z,99624.24
2017-11-06T00:48:25.276Z,99632.19
2017-11-06T00:50:51.576Z,99636.90
2017-11-06T00:53:18.624Z,99633.22
2017-11-06T00:55:44.966Z,99636.97
2017-11-06T00:58:11.321Z,99633.91
2017-11-06T01:00:37.698Z,99636.97
2017-11-06T01:03:03.997Z,99640.60
2017-11-06T01:05:30.390Z,99649.98
2017-11-06T01:07:56.714Z,99647.45
2017-11-06T01:10:23.140Z,99657.87
2017-11-06T01:12:49.526Z,99658.12
2017-11-06T01:15:15.809Z,99652.91
2017-11-06T01:17:42.939Z,99659.21
2017-11-06T01:20:09.202Z,99663.25
2017-11-06T01:22:35.558Z,99659.20
2017-11-06T01:25:01.869Z,99654.32
2017-11-06T01:27:28.417Z,99654.66
2017-11-06T01:29:54.789Z,99664.80
2017-11-06T01:32:21.097Z,99682.02
2017-11-06T01:34:47.446Z,99684.98
2017-11-06T01:37:13.847Z,99690.95
2017-11-06T01:39:40.153Z,99677.72
2017-11-06T01:42:07.230Z,99682.73
2017-11-06T01:44:33.567Z,99692.44
2017-11-06T01:46:59.915Z,99705.27
2017-11-06T01:49:26.213Z,99705.07
2017-11-06T01:51:52.517Z,99708.20
2017-11-06T01:54:18.820Z,99712.35
2017-11-06T01:56:45.224Z,99716.52
2017-11-06T01:59:11.617Z,99707.12
2017-11-06T02:01:37.894Z,99714.08
2017-11-06T02:04:04.192Z,99712.33
2017-11-06T02:06:30.473Z,99713.10
2017-11-06T02:08:56.746Z,99712.56
2017-11-06T02:11:23.076Z,99718.20
2017-11-06T02:13:49.450Z,99718.48
2017-11-06T02:16:15.781Z,99713.17
2017-11-06T02:18:42.083Z,99712.33
2017-11-06T02:21:08.390Z,99723.66
2017-11-06T02:23:35.434Z,99727.34
2017-11-06T02:26:02.531Z,99719.65
2017-11-06T02:28:28.894Z,99717.98
2017-11-06T02:30:55.297Z,99729.86
2017-11-06T02:33:21.586Z,99723.27
2017-11-06T02:35:47.893Z,99724.00
2017-11-06T02:38:14.219Z,99722.16
2017-11-06T02:40:40.555Z,99719.43
2017-11-06T02:43:06.901Z,99717.92
2017-11-06T02:45:34.033Z,99713.16
2017-11-06T02:48:00.365Z,99725.11
2017-11-06T02:50:27.468Z,99721.23
2017-11-06T02:52:53.802Z,99724.52
2017-11-06T02:55:20.156Z,99726.72
2017-11-06T02:57:46.462Z,99722.97
2017-11-06T03:00:12.785Z,99733.49
2017-11-06T03:02:39.066Z,99753.42
2017-11-06T03:05:05.382Z,99758.92
2017-11-06T03:07:31.661Z,99756.86
2017-11-06T03:09:57.960Z,99755.66
2017-11-06T03:12:24.242Z,99770.27
2017-11-06T03:14:50.529Z,99770.61
2017-11-06T03:17:16.925Z,99771.54
2017-11-06T03:19:43.272Z,99773.05
2017-11-06T03:22:09.582Z,99789.64
2017-11-06T03:24:35.888Z,99787.65
2017-11-06T03:27:02.171Z,99807.77
2017-11-06T03:29:28.510Z,99806.46
2017-11-06T03:31:54.774Z,99806.14
2017-11-06T03:34:21.057Z,99810.33
2017-11-06T03:36:47.342Z,99814.72
2017-11-06T03:39:13.669Z,99813.45
2017-11-06T03:41:39.961Z,99826.63
2017-11-06T03:44:06.252Z,99819.94
2017-11-06T03:46:32.610Z,99830.06
2017-11-06T03:48:58.886Z,99826.00
2017-11-06T03:51:25.203Z,99832.73
2017-11-06T03:53:52.272Z,99836.60
2017-11-06T03:56:18.588Z,99833.20
2017-11-06T03:58:45.639Z,99836.92
2017-11-06T04:01:11.977Z,99843.92
2017-11-06T04:03:38.289Z,99849.08
2017-11-06T04:06:05.347Z,99852.11
2017-11-06T04:08:31.672Z,99856.84
2017-11-06T04:10:57.998Z,99867.20
2017-11-06T04:13:25.085Z,99864.03
2017-11-06T04:15:51.405Z,99854.73
2017-11-06T04:18:17.707Z,99862.63
2017-11-06T04:20:44.757Z,99858.84
2017-11-06T04:23:11.026Z,99862.64
2017-11-06T04:25:37.322Z,99862.67
2017-11-06T04:28:03.631Z,99860.90
2017-11-06T04:30:30.016Z,99861.25
2017-11-06T04:32:56.354Z,99863.81
2017-11-06T04:35:22.674Z,99864.55
2017-11-06T04:37:49.100Z,99867.67
2017-11-06T04:40:15.460Z,99878.25
2017-11-06T04:42:41.756Z,99882.34
2017-11-06T04:45:08.050Z,99886.87
2017-11-06T04:47:34.399Z,99885.10
2017-11-06T04:50:01.537Z,99886.13
2017-11-06T04:52:27.852Z,99892.06
2017-11-06T04:54:54.138Z,99899.22
2017-11-06T04:57:20.420Z,99889.06
2017-11-06T04:59:46.748Z,99897.69
2017-11-06T05:02:13.062Z,99911.60
2017-11-06T05:04:39.413Z,99928.25
2017-11-06T05:07:05.698Z,99927.29
2017-11-06T05:09:31.998Z,99934.27
2017-11-06T05:11:59.071Z,99943.80
2017-11-06T05:14:25.352Z,99944.12
2017-11-06T05:16:51.690Z,99947.90
2017-11-06T05:19:18.016Z,99947.09
2017-11-06T05:21:44.336Z,99953.45
2017-11-06T05:24:10.715Z,99959.95
2017-11-06T05:26:37.073Z,99954.81
2017-11-06T05:29:03.366Z,99961.77
2017-11-06T05:31:30.390Z,99962.17
2017-11-06T05:33:56.783Z,99964.03
2017-11-06T05:36:23.065Z,99970.52
2017-11-06T05:38:50.242Z,99975.75
2017-11-06T05:41:16.550Z,99977.09
2017-11-06T05:43:43.637Z,99971.34
2017-11-06T05:46:09.949Z,99973.38
2017-11-06T05:48:36.290Z,99969.23
2017-11-06T05:51:02.621Z,99978.54
2017-11-06T05:53:28.989Z,99982.92
2017-11-06T05:55:56.076Z,99976.27
2017-11-06T05:58:23.102Z,99978.69
2017-11-06T06:00:49.500Z,99987.97
2017-11-06T06:03:15.950Z,99984.08
2017-11-06T06:05:42.299Z,99989.65
2017-11-06T06:08:08.604Z,100004.02
2017-11-06T06:10:34.896Z,100007.91
2017-11-06T06:13:01.184Z,100017.14
2017-11-06T06:15:27.456Z,100028.67
2017-11-06T06:17:53.798Z,100038.34
2017-11-06T06:20:20.125Z,100043.02
2017-11-06T06:22:46.463Z,100056.61
2017-11-06T06:25:12.750Z,100051.32
2017-11-06T06:27:39.074Z,100050.94
2017-11-06T06:30:05.430Z,100053.63
2017-11-06T06:32:31.750Z,100062.84
2017-11-06T06:34:58.813Z,100057.77
2017-11-06T06:37:25.117Z,100061.21
2017-11-06T06:39:51.547Z,100067.98
2017-11-06T06:42:17.853Z,100077.20
2017-11-06T06:44:44.221Z,100077.88
2017-11-06T06:47:10.596Z,100087.39
2017-11-06T06:49:36.897Z,100095.91
2017-11-06T06:52:03.928Z,100098.09
2017-11-06T06:54:30.293Z,100111.05
2017-11-06T06:56:56.621Z,100113.59
2017-11-06T06:59:22.925Z,100118.17
2017-11-06T07:01:49.291Z,100132.09
2017-11-06T07:04:15.623Z,100141.69
2017-11-06T07:06:41.932Z,100142.14
2017-11-06T07:09:15.896Z,100140.59
2017-11-06T07:11:42.260Z,100149.30
2017-11-06T07:14:09.325Z,100148.97
2017-11-06T07:16:35.737Z,100157.14
2017-11-06T07:19:02.109Z,100154.24
2017-11-06T07:21:28.447Z,100162.70
2017-11-06T07:23:54.793Z,100175.25
2017-11-06T07:26:21.064Z,100173.43
2017-11-06T07:28:47.345Z,100180.77
2017-11-06T07:31:13.679Z,100182.71
2017-11-06T07:33:39.974Z,100182.17
2017-11-06T07:36:06.984Z,100184.61
2017-11-06T07:38:33.387Z,100183.89
2017-11-06T07:40:59.718Z,100195.06
2017-11-06T07:43:26.105Z,100192.17
2017-11-06T07:45:53.170Z,100202.51
2017-11-06T07:48:20.297Z,100199.81
2017-11-06T07:50:48.071Z,100199.27
2017-11-06T07:53:14.414Z,100206.98
2017-11-06T07:55:41.438Z,100205.48
2017-11-06T07:58:08.477Z,100209.06
2017-11-06T08:00:34.811Z,100212.92
2017-11-06T08:03:01.073Z,100212.03
2017-11-06T08:05:28.391Z,100210.19
2017-11-06T08:07:54.740Z,100208.69
2017-11-06T08:10:21.810Z,100212.50
2017-11-06T08:12:48.890Z,100218.45
2017-11-06T08:15:15.296Z,100211.73
2017-11-06T08:17:41.706Z,100220.14
2017-11-06T08:20:08.847Z,100219.30
2017-11-06T08:22:35.284Z,100217.47
2017-11-06T08:25:01.738Z,100219.84
2017-11-06T08:27:28.842Z,100217.17
2017-11-06T08:29:55.172Z,100214.27
2017-11-06T08:32:21.508Z,100219.43
2017-11-06T08:34:47.796Z,100230.34
2017-11-06T08:37:14.169Z,100249.00
2017-11-06T08:39:40.534Z,100242.28
2017-11-06T08:42:07.550Z,100243.70
2017-11-06T08:44:33.889Z,100236.75
2017-11-06T08:47:00.178Z,100251.06
2017-11-06T08:49:26.455Z,100252.06
2017-11-06T08:51:52.839Z,100253.83
2017-11-06T08:54:19.297Z,100259.08
2017-11-06T08:56:45.639Z,100264.37
2017-11-06T08:59:12.008Z,100274.81
2017-11-06T09:01:39.065Z,100280.57
2017-11-06T09:04:06.250Z,100283.08
2017-11-06T09:06:32.563Z,100290.56
2017-11-06T09:08:58.839Z,100291.97
2017-11-06T09:11:25.159Z,100293.77
2017-11-06T09:13:51.580Z,100301.02
2017-11-06T09:16:17.884Z,100292.03
2017-11-06T09:18:44.258Z,100301.55
2017-11-06T09:21:10.544Z,100317.73
2017-11-06T09:23:36.845Z,100307.47
2017-11-06T09:26:03.153Z,100314.97
2017-11-06T09:28:29.447Z,100312.91
2017-11-06T09:30:55.991Z,100307.04
2017-11-06T09:33:22.304Z,100296.05
2017-11-06T09:35:48.636Z,100307.16
2017-11-06T09:38:15.140Z,100305.92
2017-11-06T09:40:42.228Z,100311.25
2017-11-06T09:43:08.587Z,100316.74
2017-11-06T09:45:35.748Z,100323.34
2017-11-06T09:48:02.078Z,100319.27
2017-11-06T09:50:28.365Z,100316.03
2017-11-06T09:52:54.686Z,100314.59
2017-11-06T09:55:21.047Z,100320.62
2017-11-06T09:57:47.390Z,100328.52
2017-11-06T10:00:13.784Z,100315.53
2017-11-06T10:02:40.109Z,100324.92
2017-11-06T10:05:06.388Z,100322.61
2017-11-06T10:07:32.738Z,100330.00
2017-11-06T10:09:59.181Z,100327.14
2017-11-06T10:12:26.253Z,100339.07
2017-11-06T10:14:53.799Z,100334.60
2017-11-06T10:17:20.879Z,100328.45
2017-11-06T10:19:47.270Z,100331.48
2017-11-06T10:22:13.545Z,100328.73
2017-11-06T10:24:39.849Z,100339.88
2017-11-06T10:27:06.978Z,100334.95
2017-11-06T10:29:33.312Z,100349.42
2017-11-06T10:32:00.420Z,100346.59
2017-11-06T10:34:26.818Z,100353.20
2017-11-06T10:36:53.965Z,100347.17
2017-11-06T10:39:20.308Z,100349.94
2017-11-06T10:41:46.693Z,100360.59
2017-11-06T10:44:13.031Z,100355.83
2017-11-06T10:46:39.369Z,100358.20
2017-11-06T10:49:05.681Z,100360.44
2017-11-06T10:51:32.006Z,100370.67
2017-11-06T10:53:58.555Z,100372.91
2017-11-06T10:56:24.880Z,100368.98
2017-11-06T10:58:51.342Z,100361.70
2017-11-06T11:01:18.434Z,100366.91
2017-11-06T11:03:44.765Z,100359.70
2017-11-06T11:06:11.108Z,100362.86
2017-11-06T11:08:37.396Z,100365.67
2017-11-06T11:11:04.477Z,100368.24
2017-11-06T11:13:30.860Z,100372.71
2017-11-06T11:15:57.202Z,100377.95
2017-11-06T11:18:24.486Z,100375.70
2017-11-06T11:20:50.974Z,100386.34
2017-11-06T11:23:17.772Z,100394.58
2017-11-06T11:25:44.155Z,100397.20
2017-11-06T11:28:10.463Z,100398.28
2017-11-06T11:30:36.890Z,100401.59
2017-11-06T11:33:03.227Z,100392.46
2017-11-06T11:35:29.666Z,100401.09
2017-11-06T11:37:55.957Z,100406.96
2017-11-06T11:40:22.329Z,100402.87
2017-11-06T11:42:48.714Z,100402.52
2017-11-06T11:45:15.090Z,100398.98
2017-11-06T11:47:41.489Z,100400.69
2017-11-06T11:50:07.920Z,100402.31
2017-11-06T11:52:34.331Z,100405.17
2017-11-06T11:55:00.805Z,100402.41
2017-11-06T11:57:27.293Z,100411.44
2017-11-06T11:59:54.460Z,100414.33
2017-11-06T12:02:21.003Z,100416.96
2017-11-06T12:04:47.410Z,100414.06
2017-11-06T12:07:14.580Z,100413.06
2017-11-06T12:09:41.010Z,100413.22
2017-11-06T12:12:07.435Z,100405.84
2017-11-06T12:14:34.588Z,100418.61
2017-11-06T12:17:01.753Z,100417.80
2017-11-06T12:19:28.221Z,100419.55
2017-11-06T12:21:54.584Z,100420.17
2017-11-06T12:24:20.879Z,100417.88
2017-11-06T12:26:47.193Z,100413.27
2017-11-06T12:29:13.585Z,100422.59
2017-11-06T12:31:39.988Z,100420.88
2017-11-06T12:34:06.287Z,100415.41
2017-11-06T12:36:32.776Z,100413.31
2017-11-06T12:38:59.121Z,100411.70
2017-11-06T12:41:26.279Z,100410.94
2017-11-06T12:43:53.421Z,100410.86
2017-11-06T12:46:20.567Z,100410.70
2017-11-06T12:48:47.657Z,100409.00
2017-11-06T12:51:14.132Z,100413.09
2017-11-06T12:53:40.582Z,100418.17
2017-11-06T12:56:07.758Z,100427.00
2017-11-06T12:58:34.129Z,100430.63
2017-11-06T13:01:00.434Z,100423.05
2017-11-06T13:03:26.766Z,100430.96
2017-11-06T13:05:53.128Z,100432.99
2017-11-06T13:08:19.605Z,100432.70
2017-11-06T13:10:46.672Z,100435.52
2017-11-06T13:13:13.020Z,100428.91
2017-11-06T13:15:39.378Z,100434.31
2017-11-06T13:18:05.710Z,100438.34
2017-11-06T13:20:32.017Z,100428.84
2017-11-06T13:22:58.421Z,100440.02
2017-11-06T13:25:24.734Z,100437.19
2017-11-06T13:27:51.771Z,100441.31
2017-11-06T13:30:18.094Z,100448.53
2017-11-06T13:32:44.452Z,100442.81
2017-11-06T13:35:10.817Z,100450.89
2017-11-06T13:37:37.144Z,100451.58
2017-11-06T13:40:03.443Z,100460.34
2017-11-06T13:42:29.821Z,100449.02
2017-11-06T13:44:56.163Z,100460.01
2017-11-06T13:47:22.477Z,100463.89
2017-11-06T13:49:48.763Z,100474.12
2017-11-06T13:52:15.813Z,100475.47
2017-11-06T13:54:42.925Z,100481.28
2017-11-06T13:57:09.212Z,100478.84
2017-11-06T13:59:35.500Z,100486.97
2017-11-06T14:02:01.793Z,100493.78
2017-11-06T14:04:28.173Z,100496.67
2017-11-06T14:06:54.487Z,100490.19
2017-11-06T14:09:20.815Z,100489.22
2017-11-06T14:11:47.133Z,100490.93
2017-11-06T14:14:13.464Z,100498.19
2017-11-06T14:16:39.833Z,100504.82
2017-11-06T14:19:06.162Z,100505.97
2017-11-06T14:21:32.490Z,100508.83
2017-11-06T14:23:58.795Z,100510.77
2017-11-06T14:26:25.058Z,100520.21
2017-11-06T14:28:52.117Z,100528.42
2017-11-06T14:31:19.246Z,100527.84
2017-11-06T14:33:46.320Z,100530.97
2017-11-06T14:36:12.712Z,100529.00
2017-11-06T14:38:40.339Z,100531.19
2017-11-06T14:41:07.229Z,100539.64
2017-11-06T14:43:33.636Z,100543.80
2017-11-06T14:45:59.981Z,100549.76
2017-11-06T14:48:26.245Z,100554.92
2017-11-06T14:50:54.153Z,100548.30
2017-11-06T14:53:20.492Z,100549.31
2017-11-06T14:55:46.778Z,100560.57
2017-11-06T14:58:13.218Z,100554.53
2017-11-06T15:00:40.305Z,100554.48
2017-11-06T15:03:06.591Z,100555.87
2017-11-06T15:05:33.678Z,100552.52
2017-11-06T15:07:59.958Z,100560.36
2017-11-06T15:10:26.998Z,100552.52
2017-11-06T15:12:54.770Z,100556.41
2017-11-06T15:15:21.096Z,100562.89
2017-11-06T15:17:47.454Z,100563.38
2017-11-06T15:20:13.858Z,100572.14
2017-11-06T15:22:40.243Z,100577.09
2017-11-06T15:25:06.509Z,100573.83
2017-11-06T15:27:32.900Z,100577.05
2017-11-06T15:29:59.262Z,100582.98
2017-11-06T15:32:25.656Z,100587.92
2017-11-06T15:34:52.007Z,100591.36
2017-11-06T15:37:18.421Z,100595.95
2017-11-06T15:39:44.746Z,100593.58
2017-11-06T15:42:11.066Z,100594.02
2017-11-06T15:44:37.431Z,100586.20
2017-11-06T15:47:03.795Z,100583.88
2017-11-06T15:49:30.133Z,100590.01
2017-11-06T15:51:57.214Z,100592.77
2017-11-06T15:54:24.326Z,100593.78
2017-11-06T15:56:51.292Z,100587.84
2017-11-06T15:59:17.640Z,100591.81
2017-11-06T16:01:44.667Z,100589.87
2017-11-06T16:04:10.951Z,100590.95
2017-11-06T16:06:37.462Z,100582.67
2017-11-06T16:09:03.786Z,100594.27
2017-11-06T16:11:30.389Z,100600.20
2017-11-06T16:13:56.769Z,100598.92
2017-11-06T16:16:23.059Z,100603.98
2017-11-06T16:18:49.369Z,100609.00
2017-11-06T16:21:15.721Z,100619.55
2017-11-06T16:23:42.025Z,100612.91
2017-11-06T16:26:08.361Z,100616.25
2017-11-06T16:28:34.930Z,100625.55
2017-11-06T16:31:01.245Z,100626.27
2017-11-06T16:33:27.747Z,100633.45
2017-11-06T16:35:54.047Z,100638.62
2017-11-06T16:38:20.555Z,100644.44
2017-11-06T16:40:46.885Z,100656.74
2017-11-06T16:43:13.503Z,100660.63
2017-11-06T16:45:39.837Z,100659.48
2017-11-06T16:48:06.186Z,100664.25
2017-11-06T16:50:32.640Z,100659.28
2017-11-06T16:52:59.711Z,100662.97
2017-11-06T16:55:26.174Z,100653.23
2017-11-06T16:57:52.495Z,100646.20
2017-11-06T17:00:18.824Z,100643.49
2017-11-06T17:02:45.185Z,100655.59
2017-11-06T17:05:11.541Z,100666.89
2017-11-06T17:07:38.612Z,100670.23
2017-11-06T17:10:05.099Z,100672.31
2017-11-06T17:12:31.405Z,100667.73
2017-11-06T17:14:57.779Z,100677.92
2017-11-06T17:17:24.101Z,100675.11
2017-11-06T17:19:50.443Z,100679.19
2017-11-06T17:22:16.843Z,100680.27
2017-11-06T17:24:43.272Z,100692.89
2017-11-06T17:27:09.620Z,100695.16
2017-11-06T17:29:36.084Z,100695.58
2017-11-06T17:32:03.221Z,100704.92
2017-11-06T17:34:29.581Z,100702.31
2017-11-06T17:36:55.963Z,100711.42
2017-11-06T17:39:22.315Z,100707.96
2017-11-06T17:41:48.709Z,100713.77
2017-11-06T17:44:16.136Z,100711.66
2017-11-06T17:46:42.591Z,100704.03
2017-11-06T17:49:08.989Z,100707.34
2017-11-06T17:51:36.103Z,100711.34
2017-11-06T17:54:02.426Z,100711.69
2017-11-06T17:56:29.252Z,100708.84
2017-11-06T17:58:55.870Z,100709.13
2017-11-06T18:01:22.258Z,100710.89
2017-11-06T18:03:48.773Z,100719.16
2017-11-06T18:06:15.157Z,100719.16
2017-11-06T18:08:42.420Z,100721.31
2017-11-06T18:11:09.027Z,100718.27
2017-11-06T18:13:36.446Z,100719.12
2017-11-06T18:16:03.289Z,100724.27
2017-11-06T18:18:29.684Z,100719.08
2017-11-06T18:20:56.053Z,100722.97
2017-11-06T18:23:22.389Z,100722.39
2017-11-06T18:25:48.829Z,100724.39
2017-11-06T18:28:15.173Z,100724.63
2017-11-06T18:30:41.726Z,100736.23
2017-11-06T18:33:08.199Z,100734.84
2017-11-06T18:35:34.547Z,100733.55
2017-11-06T18:38:00.938Z,100739.12
2017-11-06T18:40:28.236Z,100731.39
2017-11-06T18:42:54.663Z,100739.59
2017-11-06T18:45:21.202Z,100735.43
2017-11-06T18:47:47.602Z,100736.55
2017-11-06T18:50:14.724Z,100741.80
2017-11-06T18:52:41.077Z,100743.00
2017-11-06T18:55:08.168Z,100738.85
2017-11-06T18:57:34.526Z,100743.02
2017-11-06T19:00:00.945Z,100742.62
2017-11-06T19:02:27.312Z,100743.44
2017-11-06T19:04:55.143Z,100744.72
2017-11-06T19:07:21.617Z,100742.75
2017-11-06T19:09:48.765Z,100740.06
2017-11-06T19:12:15.883Z,100741.87
2017-11-06T19:14:42.212Z,100752.34
2017-11-06T19:17:08.573Z,100749.16
2017-11-06T19:19:35.801Z,100750.66
2017-11-06T19:22:02.315Z,100761.28
2017-11-06T19:24:28.696Z,100750.55
2017-11-06T19:26:55.841Z,100765.94
2017-11-06T19:29:22.181Z,100767.16
2017-11-06T19:31:49.286Z,100769.55
2017-11-06T19:34:15.656Z,100769.30
2017-11-06T19:36:42.090Z,100771.12
2017-11-06T19:39:08.395Z,100762.11
2017-11-06T19:41:34.722Z,100763.86
2017-11-06T19:44:02.083Z,100767.38
2017-11-06T19:46:29.943Z,100765.16
2017-11-06T19:48:57.104Z,100767.91
2017-11-06T19:51:24.613Z,100762.55
2017-11-06T19:53:51.043Z,100775.14
2017-11-06T19:56:17.478Z,100778.20
2017-11-06T19:58:43.867Z,100780.49
2017-11-06T20:01:10.167Z,100778.30
2017-11-06T20:03:36.528Z,100778.61
2017-11-06T20:06:03.086Z,100776.02
2017-11-06T20:08:29.537Z,100778.98
2017-11-06T20:10:55.948Z,100778.86
2017-11-06T20:13:22.480Z,100791.95
2017-11-06T20:15:48.821Z,100792.65
2017-11-06T20:18:15.922Z,100794.05
2017-11-06T20:20:42.248Z,100795.43
2017-11-06T20:23:08.622Z,100795.96
2017-11-06T20:25:34.998Z,100796.72
2017-11-06T20:28:01.318Z,100797.58
2017-11-06T20:30:27.676Z,100799.00
2017-11-06T20:32:54.058Z,100801.69
2017-11-06T20:35:20.728Z,100806.57
2017-11-06T20:37:47.366Z,100807.95
2017-11-06T20:40:14.134Z,100811.61
2017-11-06T20:42:40.455Z,100813.19
2017-11-06T20:45:06.921Z,100806.19
2017-11-06T20:47:33.374Z,100817.39
2017-11-06T20:50:00.541Z,100814.58
2017-11-06T20:52:26.883Z,100819.36
2017-11-06T20:54:53.224Z,100814.34
2017-11-06T20:57:19.548Z,100810.36
2017-11-06T20:59:45.893Z,100812.34
2017-11-06T21:02:12.285Z,100808.81
2017-11-06T21:04:39.389Z,100819.44
2017-11-06T21:07:06.140Z,100816.13
2017-11-06T21:09:33.101Z,100821.91
2017-11-06T21:11:59.719Z,100823.91
2017-11-06T21:14:27.510Z,100818.36
2017-11-06T21:16:53.908Z,100817.02
2017-11-06T21:19:20.320Z,100816.82
2017-11-06T21:21:46.770Z,100827.56
2017-11-06T21:24:13.098Z,100827.44
2017-11-06T21:26:39.372Z,100823.40
2017-11-06T21:29:05.714Z,100823.79
2017-11-06T21:31:32.058Z,100829.94
2017-11-06T21:33:59.103Z,100830.70
2017-11-06T21:36:25.547Z,100831.25
2017-11-06T21:38:52.605Z,100837.37
2017-11-06T21:41:19.013Z,100840.23
2017-11-06T21:43:46.061Z,100842.00
2017-11-06T21:46:13.106Z,100841.34
2017-11-06T21:48:40.174Z,100843.70
2017-11-06T21:51:07.213Z,100838.48
2017-11-06T21:53:34.287Z,100835.69
2017-11-06T21:56:00.585Z,100838.47
2017-11-06T21:58:26.893Z,100837.80
2017-11-06T22:00:53.206Z,100837.00
2017-11-06T22:03:19.558Z,100835.57
2017-11-06T22:05:45.872Z,100831.03
2017-11-06T22:08:12.185Z,100832.80
2017-11-06T22:10:38.492Z,100834.38
2017-11-06T22:13:05.026Z,100835.92
2017-11-06T22:15:32.121Z,100832.03
2017-11-06T22:17:58.422Z,100820.41
2017-11-06T22:20:24.752Z,100819.03
2017-11-06T22:22:52.044Z,100821.56
2017-11-06T22:25:18.424Z,100828.95
2017-11-06T22:27:45.510Z,100819.80
2017-11-06T22:30:11.921Z,100818.86
2017-11-06T22:32:38.229Z,100821.08
2017-11-06T22:35:05.293Z,100824.63
2017-11-06T22:37:31.593Z,100823.79
2017-11-06T22:39:57.897Z,100825.26
2017-11-06T22:42:24.215Z,100821.13
2017-11-06T22:44:50.527Z,100817.16
2017-11-06T22:47:16.822Z,100816.03
2017-11-06T22:49:43.906Z,100811.05
2017-11-06T22:52:10.934Z,100815.66
2017-11-06T22:54:38.002Z,100813.33
2017-11-06T22:57:04.312Z,100818.41
2017-11-06T22:59:31.296Z,100815.09
2017-11-06T23:01:57.592Z,100819.50
2017-11-06T23:04:23.888Z,100814.80
2017-11-06T23:06:50.162Z,100818.22
2017-11-06T23:09:16.570Z,100811.25
2017-11-06T23:11:43.772Z,100812.95
2017-11-06T23:14:10.162Z,100808.69
2017-11-06T23:16:37.225Z,100816.72
2017-11-06T23:19:03.566Z,100817.54
2017-11-06T23:21:29.883Z,100815.92
2017-11-06T23:23:56.235Z,100812.02
2017-11-06T23:26:22.550Z,100811.41
2017-11-06T23:28:48.877Z,100818.22
2017-11-06T23:31:15.181Z,100820.03
2017-11-06T23:33:41.475Z,100822.30
2017-11-06T23:36:07.842Z,100821.44
2017-11-06T23:38:34.277Z,100822.30
2017-11-06T23:41:00.563Z,100819.77
2017-11-06T23:43:26.901Z,100820.49
2017-11-06T23:45:53.285Z,100821.47
2017-11-06T23:48:20.329Z,100818.81
2017-11-06T23:50:47.469Z,100814.53
2017-11-06T23:53:13.811Z,100815.27
2017-11-06T23:55:40.888Z,100816.94
2017-11-06T23:58:07.277Z,100821.94
